Time;durP1;ratioP1;P1;durP2;ratioP2;P2;SDS_P1;SDS_P2;PMS_P1;PMS_P2;Temp;Humidity;BMP_temperature;BMP_pressure;BME280_temperature;BME280_humidity;BME280_pressure;Samples;Min_cycle;Max_cycle;Signal;HPM_P1;HPM_P2
2022/11/30 00:00:38;;;;;;;65.55;43.78;;;;;;;2.52;100.00;100968.01;2634375;88;21074;-65
2022/11/30 00:04:58;;;;;;;79.30;48.48;;;;;;;2.46;100.00;100975.25;2682664;89;21039;-64
2022/11/30 00:08:59;;;;;;;86.10;52.78;;;;;;;2.46;100.00;100968.25;2682649;87;21082;-64
2022/11/30 00:13:00;;;;;;;84.50;51.98;;;;;;;2.40;100.00;100965.38;2657122;89;21568;-64
2022/11/30 00:17:01;;;;;;;89.70;55.80;;;;;;;2.42;100.00;100964.86;2656290;87;21036;-63
2022/11/30 00:21:09;;;;;;;84.10;48.63;;;;;;;2.36;100.00;100967.73;2682546;87;21063;-64
2022/11/30 00:25:10;;;;;;;76.90;47.10;;;;;;;2.35;100.00;100973.02;2682921;85;21047;-65
2022/11/30 00:29:14;;;;;;;74.22;47.60;;;;;;;2.28;100.00;100978.95;2636110;89;21131;-64
2022/11/30 00:33:17;;;;;;;64.35;44.00;;;;;;;2.28;100.00;100981.12;2656724;87;21032;-64
2022/11/30 00:37:19;;;;;;;75.72;51.68;;;;;;;2.24;100.00;100978.19;2683046;89;21112;-60
2022/11/30 00:41:21;;;;;;;83.78;51.02;;;;;;;2.24;100.00;100974.72;2678599;87;21036;-63
2022/11/30 00:45:22;;;;;;;71.87;49.03;;;;;;;2.24;100.00;100973.41;2684015;87;21052;-61
2022/11/30 00:49:23;;;;;;;74.45;46.18;;;;;;;2.16;100.00;100975.44;2604734;90;20996;-62
2022/11/30 00:53:24;;;;;;;78.47;48.85;;;;;;;2.19;100.00;100978.81;2638413;87;21095;-61
2022/11/30 00:57:37;;;;;;;81.00;51.85;;;;;;;2.18;100.00;100980.20;2676817;87;21031;-61
2022/11/30 01:01:38;;;;;;;76.20;49.98;;;;;;;2.17;100.00;100979.33;2682586;89;21044;-61
2022/11/30 01:06:02;;;;;;;76.65;45.45;;;;;;;2.19;100.00;100980.60;2682388;88;21028;-61
2022/11/30 01:10:06;;;;;;;71.55;47.10;;;;;;;2.14;100.00;100977.66;2685119;87;21012;-61
2022/11/30 01:14:07;;;;;;;79.00;49.13;;;;;;;2.16;100.00;100978.94;2634488;90;21079;-61
2022/11/30 01:18:13;;;;;;;79.40;48.15;;;;;;;2.07;100.00;100979.27;2685223;88;21011;-61
2022/11/30 01:22:14;;;;;;;73.28;42.73;;;;;;;2.00;100.00;100979.94;2685997;87;20993;-62
2022/11/30 01:26:30;;;;;;;77.12;46.73;;;;;;;1.91;100.00;100985.05;2641691;88;21099;-62
2022/11/30 01:30:31;;;;;;;77.60;51.20;;;;;;;1.87;100.00;100990.45;2688308;88;21617;-63
2022/11/30 01:34:33;;;;;;;90.72;50.43;;;;;;;1.89;100.00;100991.25;2652293;88;21060;-63
2022/11/30 01:38:38;;;;;;;77.85;42.43;;;;;;;1.78;100.00;101006.91;2663729;87;21020;-62
2022/11/30 01:42:47;;;;;;;80.75;48.25;;;;;;;1.74;100.00;101005.75;2690010;88;21031;-62
2022/11/30 01:47:00;;;;;;;91.82;53.17;;;;;;;1.81;100.00;101004.19;2654062;88;21131;-61
2022/11/30 01:51:01;;;;;;;78.65;49.35;;;;;;;1.82;100.00;101008.52;2685454;88;21099;-63
2022/11/30 01:55:34;;;;;;;89.03;58.55;;;;;;;1.79;100.00;101004.70;2683293;87;21058;-61
2022/11/30 01:59:35;;;;;;;89.52;54.00;;;;;;;1.85;100.00;101012.34;2669082;88;21077;-61
2022/11/30 02:04:25;;;;;;;92.60;51.58;;;;;;;1.91;100.00;101014.35;2687713;88;21119;-61
2022/11/30 02:08:45;;;;;;;101.90;58.55;;;;;;;1.90;100.00;101009.58;2647144;90;21100;-62
2022/11/30 02:13:31;;;;;;;87.05;50.63;;;;;;;1.94;100.00;101011.62;2632489;89;21661;-61
2022/11/30 02:17:41;;;;;;;80.03;52.83;;;;;;;1.94;100.00;101014.24;2534049;93;21037;-62
2022/11/30 02:22:23;;;;;;;91.10;54.33;;;;;;;1.97;100.00;101010.23;2513024;94;21089;-61
2022/11/30 02:27:03;;;;;;;93.17;58.30;;;;;;;1.99;100.00;101021.53;2515005;93;21153;-62
2022/11/30 02:31:10;;;;;;;86.87;57.23;;;;;;;1.99;100.00;101022.84;2526313;93;21176;-62
2022/11/30 02:35:16;;;;;;;88.17;55.52;;;;;;;2.03;100.00;101031.00;2525170;94;21122;-62
2022/11/30 02:39:21;;;;;;;97.20;60.00;;;;;;;2.12;100.00;101025.42;2553947;91;21059;-62
2022/11/30 02:43:27;;;;;;;82.10;55.98;;;;;;;2.16;100.00;101031.43;2544888;93;21007;-61
2022/11/30 02:47:37;;;;;;;92.55;55.40;;;;;;;2.16;100.00;101027.94;2622033;88;20977;-62
2022/11/30 02:51:40;;;;;;;93.97;62.43;;;;;;;2.21;100.00;101036.06;2694960;87;21071;-62
2022/11/30 02:55:42;;;;;;;90.45;58.20;;;;;;;2.27;100.00;101036.30;2738131;87;21041;-62
2022/11/30 02:59:45;;;;;;;93.67;61.05;;;;;;;2.28;100.00;101040.20;2737886;87;21002;-62
2022/11/30 03:03:46;;;;;;;100.18;58.65;;;;;;;2.30;100.00;101045.38;2732002;87;21018;-62
2022/11/30 03:07:52;;;;;;;99.55;58.08;;;;;;;2.27;100.00;101045.49;2738028;87;20990;-62
2022/11/30 03:11:53;;;;;;;93.45;58.35;;;;;;;2.23;100.00;101046.05;2711604;85;20978;-61
2022/11/30 03:16:22;;;;;;;100.25;60.03;;;;;;;2.10;100.00;101053.97;2628130;90;21064;-62
2022/11/30 03:20:23;;;;;;;98.95;63.78;;;;;;;2.08;100.00;101055.31;2592553;92;21048;-61
2022/11/30 03:24:24;;;;;;;99.77;63.80;;;;;;;2.02;100.00;101060.78;2635767;90;21067;-62
2022/11/30 03:28:25;;;;;;;111.10;64.27;;;;;;;1.92;100.00;101064.61;2626869;90;21071;-61
2022/11/30 03:32:28;;;;;;;104.78;68.28;;;;;;;1.83;100.00;101074.95;2605240;90;21136;-61
2022/11/30 03:36:29;;;;;;;96.63;62.48;;;;;;;1.74;100.00;101080.04;2606707;90;21366;-62
2022/11/30 03:40:33;;;;;;;98.35;57.45;;;;;;;1.76;100.00;101084.78;2609571;90;21084;-62
2022/11/30 03:44:34;;;;;;;115.47;68.22;;;;;;;1.61;100.00;101085.30;2605873;90;21036;-61
2022/11/30 03:48:36;;;;;;;105.12;63.30;;;;;;;1.67;100.00;101090.34;2601984;90;21096;-61
2022/11/30 03:52:40;;;;;;;125.07;74.15;;;;;;;1.58;100.00;101089.33;2623117;89;21003;-61
2022/11/30 03:56:42;;;;;;;117.25;73.83;;;;;;;1.53;100.00;101088.99;2608917;90;21016;-62
2022/11/30 04:00:43;;;;;;;104.07;56.73;;;;;;;1.44;100.00;101097.16;2557202;90;21498;-62
2022/11/30 04:04:44;;;;;;;125.30;81.10;;;;;;;1.29;100.00;101099.80;2635844;90;21075;-60
2022/11/30 04:08:46;;;;;;;135.12;77.82;;;;;;;1.34;100.00;101102.27;2635825;87;21015;-61
2022/11/30 04:12:47;;;;;;;134.60;82.62;;;;;;;1.23;100.00;101103.46;2647081;89;21010;-62
2022/11/30 04:16:48;;;;;;;134.82;80.60;;;;;;;1.25;100.00;101102.09;2682482;88;21055;-58
2022/11/30 04:20:56;;;;;;;132.30;81.05;;;;;;;1.21;100.00;101109.20;2708807;87;21043;-60
2022/11/30 04:24:57;;;;;;;126.47;69.45;;;;;;;1.12;100.00;101103.78;2732897;87;21020;-59
2022/11/30 04:28:58;;;;;;;123.42;74.87;;;;;;;1.02;100.00;101106.25;2709301;84;21456;-59
2022/11/30 04:33:00;;;;;;;117.50;62.75;;;;;;;0.88;100.00;101110.58;2685069;85;21086;-60
2022/11/30 04:37:01;;;;;;;125.12;77.60;;;;;;;0.78;100.00;101107.79;2660051;89;21067;-59
2022/11/30 04:41:07;;;;;;;132.50;76.87;;;;;;;0.78;100.00;101107.79;2729053;87;21075;-59
2022/11/30 04:45:11;;;;;;;122.40;72.15;;;;;;;0.81;100.00;101107.27;2702203;87;21052;-59
2022/11/30 04:49:13;;;;;;;143.10;78.15;;;;;;;0.76;100.00;101117.02;2729707;87;21205;-59
2022/11/30 04:53:14;;;;;;;134.67;72.37;;;;;;;0.74;100.00;101107.47;2666444;88;21061;-59
2022/11/30 04:57:16;;;;;;;113.62;67.42;;;;;;;0.77;100.00;101107.38;2745097;87;21032;-60
2022/11/30 05:01:17;;;;;;;124.82;69.17;;;;;;;0.77;100.00;101123.97;2741996;87;21092;-59
2022/11/30 05:05:19;;;;;;;127.95;75.55;;;;;;;0.75;100.00;101120.54;2728779;86;21046;-59
2022/11/30 05:09:20;;;;;;;133.22;74.80;;;;;;;0.80;100.00;101124.35;2727179;87;21074;-59
2022/11/30 05:13:23;;;;;;;136.75;75.42;;;;;;;0.84;100.00;101123.36;2686688;87;21031;-59
2022/11/30 05:17:24;;;;;;;126.87;71.62;;;;;;;0.87;100.00;101128.51;2586782;90;21100;-59
2022/11/30 05:21:43;;;;;;;124.90;65.40;;;;;;;0.91;100.00;101127.52;2648573;90;21117;-58
2022/11/30 05:25:44;;;;;;;117.57;64.90;;;;;;;0.89;100.00;101129.78;2695662;87;21046;-59
2022/11/30 05:29:46;;;;;;;133.45;68.97;;;;;;;0.85;100.00;101127.69;2693743;88;21110;-59
2022/11/30 05:33:52;;;;;;;136.88;72.20;;;;;;;0.83;100.00;101128.19;2678152;88;21031;-60
2022/11/30 05:37:59;;;;;;;116.80;66.17;;;;;;;0.80;100.00;101135.67;2682878;89;21067;-58
2022/11/30 05:42:00;;;;;;;139.43;84.45;;;;;;;0.78;100.00;101137.48;2682049;89;21036;-59
2022/11/30 05:46:09;;;;;;;117.05;71.30;;;;;;;0.83;100.00;101139.51;2613409;89;21095;-59
2022/11/30 05:50:10;;;;;;;136.65;75.28;;;;;;;0.82;100.00;101142.19;2639610;90;21138;-59
2022/11/30 05:54:11;;;;;;;137.65;72.15;;;;;;;0.85;100.00;101150.80;2645285;88;21057;-59
2022/11/30 05:58:12;;;;;;;135.20;78.17;;;;;;;0.82;100.00;101153.52;2637888;90;21014;-59
2022/11/30 06:02:14;;;;;;;116.12;66.28;;;;;;;0.79;100.00;101157.99;2662126;87;21032;-58
2022/11/30 06:06:16;;;;;;;125.50;65.78;;;;;;;0.81;100.00;101154.88;2625335;90;21084;-58
2022/11/30 06:10:17;;;;;;;126.85;72.10;;;;;;;0.78;100.00;101155.81;2682644;89;21062;-59
2022/11/30 06:14:18;;;;;;;138.45;71.47;;;;;;;0.84;100.00;101166.58;2639506;85;21048;-59
2022/11/30 06:18:19;;;;;;;117.90;69.35;;;;;;;0.82;100.00;101175.78;2613093;89;21040;-59
2022/11/30 06:22:20;;;;;;;121.42;66.22;;;;;;;0.86;100.00;101180.49;2612386;90;21031;-60
2022/11/30 06:26:22;;;;;;;114.97;63.73;;;;;;;0.85;100.00;101173.53;2680368;88;21028;-59
2022/11/30 06:30:23;;;;;;;119.33;67.58;;;;;;;0.88;100.00;101181.31;2673977;88;21036;-59
2022/11/30 06:34:25;;;;;;;118.93;64.00;;;;;;;0.79;100.00;101176.33;2675061;89;21052;-58
2022/11/30 06:38:26;;;;;;;118.67;65.08;;;;;;;0.69;100.00;101197.51;2674824;89;21088;-58
2022/11/30 06:42:31;;;;;;;116.97;63.75;;;;;;;0.63;100.00;101198.98;2675284;89;21107;-58
2022/11/30 06:46:53;;;;;;;111.63;67.03;;;;;;;0.62;100.00;101194.65;2675034;87;21055;-59
2022/11/30 06:50:54;;;;;;;128.23;70.60;;;;;;;0.69;100.00;101204.52;2644337;89;21059;-59
2022/11/30 06:55:08;;;;;;;118.00;61.25;;;;;;;0.75;100.00;101203.48;2663719;87;20973;-59
2022/11/30 06:59:43;;;;;;;125.07;65.83;;;;;;;0.86;100.00;101202.76;2649472;89;20988;-59
2022/11/30 07:03:44;;;;;;;104.95;57.62;;;;;;;0.90;100.00;101207.01;2675636;89;21735;-59
2022/11/30 07:07:45;;;;;;;129.90;65.45;;;;;;;0.86;100.00;101210.62;2653786;89;21035;-58
2022/11/30 07:11:47;;;;;;;98.87;56.75;;;;;;;0.86;100.00;101223.72;2623599;87;21067;-59
2022/11/30 07:15:48;;;;;;;124.38;65.78;;;;;;;0.80;100.00;101229.13;2682769;89;21024;-60
2022/11/30 07:19:49;;;;;;;115.82;63.20;;;;;;;0.78;100.00;101230.46;2682907;89;21016;-59
2022/11/30 07:28:57;;;;;;;102.55;57.62;;;;;;;0.92;100.00;101235.33;2682752;89;21043;-59
2022/11/30 07:32:58;;;;;;;112.72;58.35;;;;;;;0.93;100.00;101238.36;2682842;89;21044;-59
2022/11/30 07:37:00;;;;;;;107.97;59.88;;;;;;;0.87;100.00;101238.53;2679290;87;21000;-60
2022/11/30 07:41:01;;;;;;;108.07;61.85;;;;;;;0.89;100.00;101241.13;2640812;90;21038;-59
2022/11/30 07:45:04;;;;;;;123.53;58.92;;;;;;;0.90;100.00;101250.23;2640723;90;21051;-58
2022/11/30 07:49:08;;;;;;;106.65;59.93;;;;;;;0.77;100.00;101244.45;2666115;89;21075;-59
2022/11/30 07:53:12;;;;;;;103.27;59.90;;;;;;;0.79;100.00;101258.84;2682527;87;21059;-59
2022/11/30 07:57:13;;;;;;;144.25;68.37;;;;;;;0.81;100.00;101248.71;2682474;87;21303;-59
2022/11/30 08:01:20;;;;;;;113.47;59.98;;;;;;;0.83;100.00;101253.92;2653680;89;21031;-59
2022/11/30 08:05:33;;;;;;;124.67;67.05;;;;;;;0.88;100.00;101259.90;2682976;87;21087;-59
2022/11/30 08:09:34;;;;;;;100.10;60.08;;;;;;;0.88;100.00;101262.52;2653883;89;20991;-59
2022/11/30 08:13:36;;;;;;;110.28;66.17;;;;;;;0.95;100.00;101264.06;2682605;85;21052;-59
2022/11/30 08:17:37;;;;;;;116.75;59.58;;;;;;;0.96;100.00;101265.78;2682448;87;21079;-59
2022/11/30 08:21:38;;;;;;;101.20;57.00;;;;;;;0.99;100.00;101267.05;2682744;89;21024;-58
2022/11/30 08:25:53;;;;;;;106.72;60.20;;;;;;;0.96;100.00;101266.25;2677797;87;21091;-58
2022/11/30 08:29:54;;;;;;;104.50;54.58;;;;;;;0.98;100.00;101268.38;2653591;89;21039;-59
2022/11/30 08:34:05;;;;;;;101.05;58.20;;;;;;;0.98;100.00;101264.02;2680278;89;21000;-58
2022/11/30 08:38:06;;;;;;;105.20;50.48;;;;;;;1.01;100.00;101268.77;2676087;89;21328;-58
2022/11/30 08:42:07;;;;;;;112.45;60.90;;;;;;;1.03;100.00;101269.11;2683290;89;21032;-59
2022/11/30 08:46:12;;;;;;;106.55;61.13;;;;;;;1.06;100.00;101270.80;2683063;89;21028;-60
2022/11/30 08:50:13;;;;;;;102.12;53.78;;;;;;;1.14;100.00;101271.02;2683201;89;21004;-59
2022/11/30 08:54:15;;;;;;;103.78;54.05;;;;;;;1.17;100.00;101281.84;2661088;89;21035;-59
2022/11/30 08:58:16;;;;;;;110.95;58.83;;;;;;;1.17;100.00;101279.22;2678624;87;20989;-59
2022/11/30 09:02:18;;;;;;;123.62;61.70;;;;;;;1.12;100.00;101290.28;2686460;84;21047;-58
2022/11/30 09:06:23;;;;;;;127.97;66.25;;;;;;;1.02;100.00;101292.75;2683042;89;21036;-60
2022/11/30 09:10:25;;;;;;;110.20;57.58;;;;;;;1.04;100.00;101293.10;2693243;87;21092;-59
2022/11/30 09:14:26;;;;;;;127.65;74.32;;;;;;;1.12;100.00;101291.59;2603345;90;21127;-58
2022/11/30 09:18:27;;;;;;;138.18;69.90;;;;;;;1.12;100.00;101293.78;2606665;90;21088;-59
2022/11/30 09:22:28;;;;;;;122.42;66.07;;;;;;;1.12;100.00;101299.45;2647722;90;21102;-58
2022/11/30 09:26:29;;;;;;;119.50;59.23;;;;;;;1.17;100.00;101301.50;2667308;88;21019;-59
2022/11/30 09:30:30;;;;;;;105.52;54.40;;;;;;;1.12;100.00;101306.02;2670977;88;21039;-59
2022/11/30 09:34:31;;;;;;;109.10;52.00;;;;;;;1.03;100.00;101306.27;2656597;88;21055;-59
2022/11/30 09:38:33;;;;;;;105.92;54.70;;;;;;;0.93;100.00;101299.09;2686890;88;21058;-58
2022/11/30 09:42:55;;;;;;;98.78;54.10;;;;;;;1.04;100.00;101303.59;2661582;88;21059;-58
2022/11/30 09:47:36;;;;;;;119.70;60.03;;;;;;;1.01;100.00;101301.05;2567870;92;21017;-58
2022/11/30 09:51:48;;;;;;;117.10;57.23;;;;;;;1.02;100.00;101309.78;2567235;91;21091;-59
2022/11/30 09:55:52;;;;;;;116.47;57.90;;;;;;;1.10;100.00;101309.13;2566884;92;21119;-59
2022/11/30 10:00:05;;;;;;;134.05;62.15;;;;;;;1.20;100.00;101311.94;2542512;93;21355;-59
2022/11/30 10:04:28;;;;;;;110.40;63.33;;;;;;;1.24;100.00;101307.45;2568360;92;21101;-59
2022/11/30 10:08:45;;;;;;;122.92;73.57;;;;;;;1.29;100.00;101309.52;2569318;90;21052;-58
2022/11/30 10:13:19;;;;;;;;;;;;;;;1.34;100.00;101297.58;2566320;92;21083;-59
2022/11/30 10:17:53;;;;;;;100.58;43.15;;;;;;;1.48;100.00;101305.94;2540537;93;20097;-59
2022/11/30 10:22:12;;;;;;;84.67;48.28;;;;;;;1.40;100.00;101297.43;2597014;88;21018;-58
2022/11/30 10:26:34;;;;;;;137.88;78.78;;;;;;;1.30;100.00;101295.51;2688723;88;20970;-58
2022/11/30 10:30:36;;;;;;;128.10;67.03;;;;;;;1.23;100.00;101292.62;2680185;87;21061;-59
2022/11/30 10:34:52;;;;;;;103.22;57.70;;;;;;;1.30;100.00;101296.81;2639325;89;21024;-58
2022/11/30 10:39:00;;;;;;;101.50;54.48;;;;;;;1.38;100.00;101294.84;2654559;88;21024;-59
2022/11/30 10:43:12;;;;;;;102.87;53.28;;;;;;;1.32;100.00;101290.20;2675612;87;21047;-59
2022/11/30 10:47:35;;;;;;;106.45;54.40;;;;;;;1.38;100.00;101300.55;2674001;89;21048;-58
2022/11/30 10:51:38;;;;;;;118.53;59.50;;;;;;;1.45;100.00;101302.53;2674185;88;21016;-59
2022/11/30 10:55:57;;;;;;;108.10;61.37;;;;;;;1.50;100.00;101304.13;2669097;89;21119;-58
2022/11/30 11:00:02;;;;;;;104.10;57.13;;;;;;;1.51;100.00;101299.29;2673371;88;21040;-59
2022/11/30 11:04:15;;;;;;;90.03;47.27;;;;;;;1.49;100.00;101305.03;2675892;87;21047;-59
2022/11/30 11:08:26;;;;;;;137.77;58.52;;;;;;;1.54;100.00;101300.51;2675305;88;21024;-58
2022/11/30 11:12:34;;;;;;;112.40;62.35;;;;;;;1.67;100.00;101301.05;2686008;87;21095;-58
2022/11/30 11:17:08;;;;;;;113.62;61.63;;;;;;;1.63;100.00;101298.08;2727373;87;21010;-59
2022/11/30 11:21:18;;;;;;;124.65;67.97;;;;;;;1.71;100.00;101292.62;2614673;90;21057;-58
2022/11/30 11:25:42;;;;;;;124.33;63.65;;;;;;;1.57;100.00;101294.33;2623454;90;21094;-59
2022/11/30 11:29:43;;;;;;;114.72;58.05;;;;;;;1.54;100.00;101290.48;2619102;87;21044;-59
2022/11/30 11:33:53;;;;;;;97.82;49.27;;;;;;;1.69;100.00;101291.81;2583039;90;21087;-59
2022/11/30 11:37:54;;;;;;;115.47;62.75;;;;;;;1.70;100.00;101294.41;2638752;89;21101;-59
2022/11/30 11:41:56;;;;;;;115.22;56.83;;;;;;;1.78;100.00;101283.69;2638645;90;21092;-59
2022/11/30 11:46:24;;;;;;;112.22;59.08;;;;;;;1.75;100.00;101288.16;2638690;90;21006;-58
2022/11/30 11:50:36;;;;;;;123.47;68.47;;;;;;;1.78;100.00;101289.38;2629738;90;21123;-58
2022/11/30 11:55:04;;;;;;;91.78;46.68;;;;;;;1.69;100.00;101286.56;2644227;87;21096;-58
2022/11/30 11:59:43;;;;;;;108.27;61.42;;;;;;;1.63;100.00;101290.22;2646844;88;21074;-58
2022/11/30 12:04:01;;;;;;;100.75;49.35;;;;;;;1.68;100.00;101294.90;2635216;90;21017;-59
2022/11/30 12:08:42;;;;;;;99.70;53.95;;;;;;;1.85;100.00;101293.53;2725469;87;21024;-58
2022/11/30 12:13:23;;;;;;;102.55;57.75;;;;;;;1.89;100.00;101290.38;2679232;88;21050;-59
2022/11/30 12:18:03;;;;;;;102.87;55.70;;;;;;;1.91;100.00;101293.80;2730987;87;21020;-59
2022/11/30 12:22:19;;;;;;;97.37;50.05;;;;;;;1.77;100.00;101306.02;2718407;87;21146;-58
2022/11/30 12:26:31;;;;;;;93.33;51.37;;;;;;;1.89;100.00;101307.42;2680238;88;21032;-59
2022/11/30 12:31:00;;;;;;;109.32;55.67;;;;;;;1.77;100.00;101310.83;2744433;86;21063;-59
2022/11/30 12:35:19;;;;;;;97.12;52.27;;;;;;;1.80;100.00;101317.73;2677016;88;21322;-58
2022/11/30 12:39:36;;;;;;;92.92;50.17;;;;;;;1.88;100.00;101314.89;2732873;86;21040;-58
2022/11/30 12:43:58;;;;;;;103.65;50.55;;;;;;;1.96;100.00;101308.95;2729486;85;20996;-58
2022/11/30 12:48:56;;;;;;;97.80;55.73;;;;;;;2.02;100.00;101308.80;2677459;89;20959;-59
2022/11/30 12:53:21;;;;;;;;;;;;;;;2.05;100.00;101308.70;2671428;88;21058;-58
2022/11/30 12:57:30;;;;;;;91.70;50.83;;;;;;;2.04;100.00;101307.42;2619255;90;20458;-58
2022/11/30 13:02:07;;;;;;;112.75;57.80;;;;;;;1.91;100.00;101309.55;2660754;88;21763;-59
2022/11/30 13:06:20;;;;;;;108.70;53.50;;;;;;;1.90;100.00;101310.02;2624237;90;21130;-58
2022/11/30 13:10:38;;;;;;;116.42;61.85;;;;;;;1.80;100.00;101314.67;2650637;88;21090;-59
2022/11/30 13:14:40;;;;;;;112.05;60.92;;;;;;;1.77;100.00;101314.77;2636801;88;21078;-59
2022/11/30 13:18:42;;;;;;;98.33;56.40;;;;;;;1.79;100.00;101306.40;2617701;89;21070;-59
2022/11/30 13:23:30;;;;;;;132.90;63.52;;;;;;;1.84;100.00;101306.23;2600865;90;21021;-59
2022/11/30 13:27:42;;;;;;;119.95;64.60;;;;;;;1.88;100.00;101309.64;2658950;88;21127;-59
2022/11/30 13:32:12;;;;;;;107.47;58.08;;;;;;;1.96;100.00;101305.89;2653302;89;21141;-59
2022/11/30 13:36:38;;;;;;;108.37;59.73;;;;;;;1.88;100.00;101303.08;2646851;89;21016;-59
2022/11/30 13:40:40;;;;;;;99.62;55.43;;;;;;;1.89;100.00;101304.36;2675293;89;21012;-59
2022/11/30 13:44:43;;;;;;;105.65;59.53;;;;;;;1.90;100.00;101304.77;2671480;89;21049;-59
2022/11/30 13:48:45;;;;;;;109.55;58.38;;;;;;;1.97;100.00;101315.95;2675477;88;20961;-59
2022/11/30 13:53:23;;;;;;;110.05;54.08;;;;;;;1.82;100.00;101323.36;2668133;88;21029;-59
2022/11/30 13:57:50;;;;;;;108.87;55.30;;;;;;;1.76;100.00;101326.13;2674031;89;21004;-59
2022/11/30 14:02:41;;;;;;;109.40;56.08;;;;;;;1.76;100.00;101323.98;2674350;89;20984;-60
2022/11/30 14:06:49;;;;;;;109.57;52.73;;;;;;;1.77;100.00;101326.57;2660223;89;21020;-59
2022/11/30 14:11:14;;;;;;;94.40;53.17;;;;;;;1.80;100.00;101330.85;2674639;88;21015;-59
2022/11/30 14:15:41;;;;;;;100.78;59.25;;;;;;;1.79;100.00;101330.45;2713595;87;21056;-59
2022/11/30 14:19:44;;;;;;;;;;;;;;;1.75;100.00;101322.27;2737057;86;21084;-59
2022/11/30 14:24:15;;;;;;;105.45;57.70;;;;;;;1.72;100.00;101327.13;2733654;85;20089;-59
2022/11/30 14:29:09;;;;;;;94.67;54.77;;;;;;;1.75;100.00;101328.34;2703150;87;21032;-59
2022/11/30 14:33:22;;;;;;;94.47;53.25;;;;;;;1.76;100.00;101326.60;2739558;85;21064;-59
2022/11/30 14:37:32;;;;;;;104.95;53.58;;;;;;;1.77;100.00;101337.06;2658892;87;21078;-59
2022/11/30 14:41:44;;;;;;;81.85;46.37;;;;;;;1.69;100.00;101342.95;2671290;87;21106;-59
2022/11/30 14:46:05;;;;;;;91.75;49.05;;;;;;;1.66;100.00;101341.73;2685684;87;21049;-58
2022/11/30 14:50:12;;;;;;;99.45;50.00;;;;;;;1.69;100.00;101344.27;2705400;86;21074;-58
2022/11/30 14:54:36;;;;;;;90.83;51.60;;;;;;;1.72;100.00;101348.11;2720874;87;21061;-59
2022/11/30 14:59:18;;;;;;;83.70;51.68;;;;;;;1.64;100.00;101347.02;2711694;87;21041;-58
2022/11/30 15:03:30;;;;;;;81.20;47.67;;;;;;;1.72;100.00;101342.88;2686471;87;21101;-58
2022/11/30 15:07:33;;;;;;;92.20;52.88;;;;;;;1.73;100.00;101341.97;2716622;85;21023;-59
2022/11/30 15:11:41;;;;;;;90.65;50.65;;;;;;;1.75;100.00;101349.34;2738582;85;21075;-59
2022/11/30 15:15:55;;;;;;;90.20;47.13;;;;;;;1.69;100.00;101343.84;2727574;85;21106;-58
2022/11/30 15:19:56;;;;;;;122.70;60.23;;;;;;;1.75;100.00;101350.66;2717363;87;21007;-58
2022/11/30 15:24:01;;;;;;;95.07;58.75;;;;;;;1.83;100.00;101347.81;2724372;87;21013;-58
2022/11/30 15:28:04;;;;;;;101.02;57.95;;;;;;;1.83;100.00;101353.94;2729499;87;21087;-62
2022/11/30 15:32:16;;;;;;;97.70;56.73;;;;;;;1.81;100.00;101354.44;2729125;87;21005;-62
2022/11/30 15:36:17;;;;;;;108.25;56.18;;;;;;;1.67;100.00;101355.27;2694285;86;21054;-64
2022/11/30 15:40:33;;;;;;;119.22;61.45;;;;;;;1.67;100.00;101357.45;2722934;87;21035;-62
2022/11/30 15:44:45;;;;;;;89.42;50.25;;;;;;;1.65;100.00;101361.84;2721937;86;21244;-63
2022/11/30 15:48:47;;;;;;;98.40;50.52;;;;;;;1.62;100.00;101351.91;2691927;87;21072;-62
2022/11/30 15:52:53;;;;;;;95.60;55.15;;;;;;;1.63;100.00;101354.95;2710441;86;21084;-62
2022/11/30 15:56:56;;;;;;;99.40;54.67;;;;;;;1.73;100.00;101356.39;2725047;86;21111;-62
2022/11/30 16:01:12;;;;;;;89.25;52.70;;;;;;;1.87;100.00;101358.66;2724679;87;21016;-63
2022/11/30 16:05:19;;;;;;;91.57;56.83;;;;;;;2.05;100.00;101359.88;2724571;87;21335;-62
2022/11/30 16:09:32;;;;;;;106.15;56.50;;;;;;;1.94;100.00;101366.75;2729043;87;28267;-62
2022/11/30 16:13:33;;;;;;;89.22;52.67;;;;;;;1.95;100.00;101367.59;2729514;86;21001;-61
2022/11/30 16:17:34;;;;;;;81.67;47.45;;;;;;;1.94;100.00;101368.50;2707993;87;21111;-62
2022/11/30 16:21:36;;;;;;;73.25;48.02;;;;;;;1.88;100.00;101373.94;2729920;87;21040;-63
2022/11/30 16:25:37;;;;;;;86.02;53.45;;;;;;;1.95;100.00;101366.28;2729732;87;21048;-62
2022/11/30 16:29:38;;;;;;;82.20;51.68;;;;;;;1.96;100.00;101366.69;2710273;86;21080;-62
2022/11/30 16:33:39;;;;;;;86.78;51.83;;;;;;;2.01;100.00;101368.75;2659405;88;21018;-63
2022/11/30 16:37:41;;;;;;;84.70;50.30;;;;;;;2.02;100.00;101377.47;2742483;85;21015;-62
2022/11/30 16:41:43;;;;;;;83.40;46.90;;;;;;;1.99;100.00;101371.88;2729084;85;21084;-62
2022/11/30 16:45:49;;;;;;;93.75;49.13;;;;;;;2.00;100.00;101370.50;2729938;85;21001;-62
2022/11/30 16:49:51;;;;;;;90.42;51.25;;;;;;;1.94;100.00;101370.69;2729827;87;21147;-62
2022/11/30 16:53:53;;;;;;;90.87;50.00;;;;;;;1.93;100.00;101370.72;2692286;87;21076;-64
2022/11/30 16:57:54;;;;;;;81.70;42.67;;;;;;;1.98;100.00;101371.00;2717264;86;20995;-63
2022/11/30 17:01:55;;;;;;;70.47;43.70;;;;;;;1.91;100.00;101371.22;2726778;86;21063;-62
2022/11/30 17:05:56;;;;;;;73.62;46.98;;;;;;;1.91;100.00;101373.84;2729819;87;21048;-62
2022/11/30 17:09:57;;;;;;;79.50;42.08;;;;;;;1.87;100.00;101378.34;2729773;86;21061;-61
2022/11/30 17:14:07;;;;;;;77.17;44.65;;;;;;;1.88;100.00;101385.30;2693549;87;21048;-62
2022/11/30 17:18:08;;;;;;;77.15;45.78;;;;;;;1.90;100.00;101386.12;2682626;88;21119;-64
2022/11/30 17:22:09;;;;;;;74.50;44.38;;;;;;;1.90;100.00;101389.18;2673934;89;21051;-64
2022/11/30 17:26:12;;;;;;;78.17;46.40;;;;;;;1.94;100.00;101398.68;2670927;89;21644;-62
2022/11/30 17:30:17;;;;;;;81.55;47.90;;;;;;;1.98;100.00;101395.09;2682524;87;21023;-62
2022/11/30 17:34:18;;;;;;;71.42;43.80;;;;;;;2.03;100.00;101402.38;2682556;89;21071;-62
2022/11/30 17:38:19;;;;;;;69.15;35.23;;;;;;;2.00;100.00;101402.47;2682683;89;21028;-62
2022/11/30 17:42:21;;;;;;;75.90;44.48;;;;;;;1.88;100.00;101402.80;2682535;87;21016;-62
2022/11/30 17:46:22;;;;;;;62.73;39.55;;;;;;;1.91;100.00;101407.52;2682895;89;21023;-62
2022/11/30 17:50:38;;;;;;;77.22;39.78;;;;;;;1.97;100.00;101405.18;2682894;89;21028;-62
2022/11/30 17:54:39;;;;;;;65.08;39.90;;;;;;;1.90;100.00;101412.36;2664157;84;21055;-66
2022/11/30 17:58:46;;;;;;;85.95;47.08;;;;;;;1.92;100.00;101414.48;2689582;87;21000;-66
2022/11/30 18:02:50;;;;;;;;;;;;;;;1.97;100.00;101413.05;2702843;87;21052;-65
2022/11/30 18:06:51;;;;;;;70.62;41.10;;;;;;;1.79;100.00;101415.28;2653537;87;20080;-65
2022/11/30 18:10:54;;;;;;;88.65;49.25;;;;;;;1.76;100.00;101414.48;2681966;87;21098;-65
2022/11/30 18:14:55;;;;;;;79.67;46.77;;;;;;;1.69;100.00;101420.34;2692454;86;21065;-65
2022/11/30 18:18:58;;;;;;;67.80;40.48;;;;;;;1.72;100.00;101421.57;2705749;87;21079;-66
2022/11/30 18:22:59;;;;;;;69.55;43.60;;;;;;;1.88;100.00;101422.48;2726600;86;21095;-65
2022/11/30 18:27:00;;;;;;;83.40;42.93;;;;;;;1.94;100.00;101422.30;2725833;86;21032;-66
2022/11/30 18:31:01;;;;;;;70.92;45.33;;;;;;;2.00;100.00;101427.40;2729052;86;21071;-66
2022/11/30 18:35:04;;;;;;;93.90;43.23;;;;;;;1.99;100.00;101428.30;2729362;87;21039;-65
2022/11/30 18:39:05;;;;;;;61.35;38.53;;;;;;;2.04;100.00;101425.09;2728519;87;21020;-66
2022/11/30 18:43:06;;;;;;;84.03;45.45;;;;;;;2.06;100.00;101431.16;2727607;86;21060;-65
2022/11/30 18:47:09;;;;;;;74.67;43.75;;;;;;;2.06;100.00;101429.84;2728160;87;21079;-66
2022/11/30 18:51:14;;;;;;;77.97;44.63;;;;;;;2.07;100.00;101433.34;2670810;89;21046;-65